Terminal Aerodrome Forecast
Issued by NWS Mt. Holly, NJ

Current Version | Previous Version | Text Only | Print | Product List | Glossary On
Versions: 1 2 3 4 5 6 7 8 9 10 11 12 13 14 15 16 17 18 19 20 21 22
432
FTUS41 KPHI 301127
TAFACY
TAF
KACY 301127Z 3012/3112 11010KT P6SM OVC006
     FM301300 12010KT 4SM -SHRA BR OVC008
     FM301600 14007KT 6SM BR OVC008
     FM310000 14006KT 4SM BR OVC005 PROB30 3103/3106 2SM -SHRA
     FM310600 11005KT 1SM -DZ OVC003=

USA.gov is the U.S. government's official web portal to all federal, state and local government web resources and services.